sensor_id;sensor_type;location;lat;lon;timestamp;pressure;altitude;pressure_sealevel;temperature;humidity
72124;BME280;63818;37.134;-8.548;2023-03-22T00:01:10;101452.7;;;18.1;58.3
72124;BME280;63818;37.134;-8.548;2023-03-22T00:05:59;101454.2;;;18.0;59.2
72124;BME280;63818;37.134;-8.548;2023-03-22T00:10:46;101443.9;;;18.0;59.9
72124;BME280;63818;37.134;-8.548;2023-03-22T00:15:38;101449.1;;;17.9;60.4
72124;BME280;63818;37.134;-8.548;2023-03-22T00:20:24;101453.0;;;17.9;61.1
72124;BME280;63818;37.134;-8.548;2023-03-22T00:25:10;101442.3;;;17.8;61.4
72124;BME280;63818;37.134;-8.548;2023-03-22T00:30:00;101437.1;;;17.8;61.4
72124;BME280;63818;37.134;-8.548;2023-03-22T00:34:49;101438.9;;;17.7;61.2
72124;BME280;63818;37.134;-8.548;2023-03-22T00:39:35;101442.9;;;17.8;61.3
72124;BME280;63818;37.134;-8.548;2023-03-22T00:44:21;101435.8;;;17.8;61.6
72124;BME280;63818;37.134;-8.548;2023-03-22T00:49:07;101427.4;;;17.8;62.3
72124;BME280;63818;37.134;-8.548;2023-03-22T00:53:52;101418.9;;;17.8;62.7
72124;BME280;63818;37.134;-8.548;2023-03-22T00:58:42;101426.6;;;17.8;62.9
72124;BME280;63818;37.134;-8.548;2023-03-22T01:03:28;101420.7;;;17.8;63.7
72124;BME280;63818;37.134;-8.548;2023-03-22T01:08:23;101418.3;;;17.7;63.7
72124;BME280;63818;37.134;-8.548;2023-03-22T01:13:11;101412.0;;;17.7;64.0
72124;BME280;63818;37.134;-8.548;2023-03-22T01:17:59;101410.8;;;17.7;64.1
72124;BME280;63818;37.134;-8.548;2023-03-22T01:22:45;101407.2;;;17.7;64.6
72124;BME280;63818;37.134;-8.548;2023-03-22T01:27:34;101399.4;;;17.6;64.1
72124;BME280;63818;37.134;-8.548;2023-03-22T01:32:20;101399.9;;;17.6;64.0
72124;BME280;63818;37.134;-8.548;2023-03-22T01:37:06;101393.9;;;17.5;63.9
72124;BME280;63818;37.134;-8.548;2023-03-22T01:41:52;101399.8;;;17.5;64.3
72124;BME280;63818;37.134;-8.548;2023-03-22T01:51:26;101390.4;;;17.5;64.4
72124;BME280;63818;37.134;-8.548;2023-03-22T01:56:14;101389.9;;;17.5;64.4
72124;BME280;63818;37.134;-8.548;2023-03-22T02:01:03;101381.1;;;17.4;64.7
72124;BME280;63818;37.134;-8.548;2023-03-22T02:05:49;101374.2;;;17.2;65.4
72124;BME280;63818;37.134;-8.548;2023-03-22T02:10:38;101371.3;;;17.2;65.8
72124;BME280;63818;37.134;-8.548;2023-03-22T02:15:27;101382.3;;;17.1;66.9
72124;BME280;63818;37.134;-8.548;2023-03-22T02:21:54;101377.4;;;17.1;66.7
72124;BME280;63818;37.134;-8.548;2023-03-22T02:27:31;101354.6;;;17.2;66.8
72124;BME280;63818;37.134;-8.548;2023-03-22T02:34:01;101353.3;;;17.1;66.8
72124;BME280;63818;37.134;-8.548;2023-03-22T02:39:30;101355.7;;;17.1;67.6
72124;BME280;63818;37.134;-8.548;2023-03-22T02:44:25;101351.1;;;17.2;67.3
72124;BME280;63818;37.134;-8.548;2023-03-22T02:49:17;101342.6;;;17.1;67.2
72124;BME280;63818;37.134;-8.548;2023-03-22T02:54:07;101341.8;;;17.0;67.2
72124;BME280;63818;37.134;-8.548;2023-03-22T02:59:01;101334.0;;;17.0;67.2
72124;BME280;63818;37.134;-8.548;2023-03-22T03:03:49;101340.1;;;17.0;67.4
72124;BME280;63818;37.134;-8.548;2023-03-22T03:08:38;101332.5;;;16.9;67.4
72124;BME280;63818;37.134;-8.548;2023-03-22T03:13:26;101324.4;;;16.9;67.4
72124;BME280;63818;37.134;-8.548;2023-03-22T03:18:18;101314.2;;;16.9;67.3
72124;BME280;63818;37.134;-8.548;2023-03-22T03:23:15;101300.0;;;16.9;67.3
72124;BME280;63818;37.134;-8.548;2023-03-22T03:28:09;101303.4;;;16.9;67.1
72124;BME280;63818;37.134;-8.548;2023-03-22T03:33:01;101306.1;;;16.9;66.9
72124;BME280;63818;37.134;-8.548;2023-03-22T03:37:51;101302.1;;;16.9;66.8
72124;BME280;63818;37.134;-8.548;2023-03-22T03:42:42;101301.3;;;16.9;66.6
72124;BME280;63818;37.134;-8.548;2023-03-22T03:47:31;101305.6;;;16.9;66.5
72124;BME280;63818;37.134;-8.548;2023-03-22T03:52:19;101304.0;;;16.9;65.8
72124;BME280;63818;37.134;-8.548;2023-03-22T03:57:05;101311.1;;;16.8;66.0
72124;BME280;63818;37.134;-8.548;2023-03-22T04:01:52;101307.6;;;16.8;66.1
72124;BME280;63818;37.134;-8.548;2023-03-22T04:06:42;101300.8;;;16.7;65.9
72124;BME280;63818;37.134;-8.548;2023-03-22T04:11:29;101309.3;;;16.7;65.6
72124;BME280;63818;37.134;-8.548;2023-03-22T04:16:18;101309.1;;;16.7;65.8
72124;BME280;63818;37.134;-8.548;2023-03-22T04:21:05;101306.0;;;16.7;66.0
72124;BME280;63818;37.134;-8.548;2023-03-22T04:25:51;101298.6;;;16.7;66.0
72124;BME280;63818;37.134;-8.548;2023-03-22T04:30:37;101283.2;;;16.7;66.2
72124;BME280;63818;37.134;-8.548;2023-03-22T04:35:24;101295.4;;;16.6;66.7
72124;BME280;63818;37.134;-8.548;2023-03-22T04:40:10;101299.6;;;16.6;67.0
72124;BME280;63818;37.134;-8.548;2023-03-22T04:44:56;101287.5;;;16.6;67.1
72124;BME280;63818;37.134;-8.548;2023-03-22T04:49:43;101287.5;;;16.6;67.5
72124;BME280;63818;37.134;-8.548;2023-03-22T04:54:29;101298.1;;;16.6;67.4
72124;BME280;63818;37.134;-8.548;2023-03-22T04:59:15;101295.7;;;16.6;67.6
72124;BME280;63818;37.134;-8.548;2023-03-22T05:04:02;101290.5;;;16.6;67.3
72124;BME280;63818;37.134;-8.548;2023-03-22T05:08:55;101285.0;;;16.5;67.4
72124;BME280;63818;37.134;-8.548;2023-03-22T05:13:42;101291.9;;;16.5;66.9
72124;BME280;63818;37.134;-8.548;2023-03-22T05:18:31;101294.8;;;16.5;67.3
72124;BME280;63818;37.134;-8.548;2023-03-22T05:23:18;101287.0;;;16.5;67.5
72124;BME280;63818;37.134;-8.548;2023-03-22T05:28:04;101295.8;;;16.4;67.4
72124;BME280;63818;37.134;-8.548;2023-03-22T05:32:50;101308.8;;;16.4;67.6
72124;BME280;63818;37.134;-8.548;2023-03-22T05:37:43;101317.4;;;16.3;67.5
72124;BME280;63818;37.134;-8.548;2023-03-22T05:42:29;101315.8;;;16.3;67.0
72124;BME280;63818;37.134;-8.548;2023-03-22T05:47:15;101322.4;;;16.1;67.2
72124;BME280;63818;37.134;-8.548;2023-03-22T05:52:02;101318.2;;;16.1;66.8
72124;BME280;63818;37.134;-8.548;2023-03-22T05:56:48;101309.3;;;16.1;66.9
72124;BME280;63818;37.134;-8.548;2023-03-22T06:01:34;101300.7;;;16.1;67.2
72124;BME280;63818;37.134;-8.548;2023-03-22T06:06:21;101302.5;;;16.0;66.9
72124;BME280;63818;37.134;-8.548;2023-03-22T06:15:54;101316.8;;;16.1;67.6
72124;BME280;63818;37.134;-8.548;2023-03-22T06:20:45;101319.8;;;16.1;67.7
72124;BME280;63818;37.134;-8.548;2023-03-22T06:25:31;101331.0;;;16.1;68.2
72124;BME280;63818;37.134;-8.548;2023-03-22T06:30:17;101328.7;;;16.1;67.8
72124;BME280;63818;37.134;-8.548;2023-03-22T06:35:04;101326.8;;;16.1;67.2
72124;BME280;63818;37.134;-8.548;2023-03-22T06:39:50;101320.6;;;16.0;67.1
72124;BME280;63818;37.134;-8.548;2023-03-22T06:44:39;101327.3;;;16.1;67.3
72124;BME280;63818;37.134;-8.548;2023-03-22T06:49:25;101328.8;;;16.0;67.0
72124;BME280;63818;37.134;-8.548;2023-03-22T06:54:13;101337.6;;;16.0;67.0
72124;BME280;63818;37.134;-8.548;2023-03-22T06:59:00;101344.1;;;16.0;67.5
72124;BME280;63818;37.134;-8.548;2023-03-22T07:03:46;101353.8;;;16.0;67.4
72124;BME280;63818;37.134;-8.548;2023-03-22T07:08:33;101360.4;;;15.9;66.9
72124;BME280;63818;37.134;-8.548;2023-03-22T07:13:20;101367.2;;;15.8;66.6
72124;BME280;63818;37.134;-8.548;2023-03-22T07:18:06;101376.1;;;15.7;66.7
72124;BME280;63818;37.134;-8.548;2023-03-22T07:22:58;101383.0;;;15.7;67.1
72124;BME280;63818;37.134;-8.548;2023-03-22T07:27:45;101387.3;;;15.8;67.4
72124;BME280;63818;37.134;-8.548;2023-03-22T07:32:31;101386.3;;;15.8;67.5
72124;BME280;63818;37.134;-8.548;2023-03-22T07:37:53;101381.0;;;15.9;67.3
72124;BME280;63818;37.134;-8.548;2023-03-22T07:42:38;101384.3;;;16.0;67.2
72124;BME280;63818;37.134;-8.548;2023-03-22T07:47:25;101385.2;;;16.0;67.4
72124;BME280;63818;37.134;-8.548;2023-03-22T07:52:11;101393.2;;;16.1;67.3
72124;BME280;63818;37.134;-8.548;2023-03-22T07:56:58;101396.8;;;16.1;67.7
72124;BME280;63818;37.134;-8.548;2023-03-22T08:01:44;101399.5;;;16.1;67.6
72124;BME280;63818;37.134;-8.548;2023-03-22T08:06:31;101398.2;;;16.2;67.6
72124;BME280;63818;37.134;-8.548;2023-03-22T08:11:45;101407.6;;;16.3;67.8
72124;BME280;63818;37.134;-8.548;2023-03-22T08:16:30;101401.0;;;16.4;67.4
72124;BME280;63818;37.134;-8.548;2023-03-22T08:21:17;101405.5;;;16.5;67.5
72124;BME280;63818;37.134;-8.548;2023-03-22T08:26:09;101411.6;;;16.5;67.7
72124;BME280;63818;37.134;-8.548;2023-03-22T08:31:42;101399.3;;;16.5;67.8
72124;BME280;63818;37.134;-8.548;2023-03-22T08:36:29;101403.4;;;16.6;68.4
72124;BME280;63818;37.134;-8.548;2023-03-22T08:41:17;101407.0;;;16.6;68.0
72124;BME280;63818;37.134;-8.548;2023-03-22T08:46:04;101397.9;;;16.7;67.7
72124;BME280;63818;37.134;-8.548;2023-03-22T08:51:40;101408.2;;;16.8;67.9
72124;BME280;63818;37.134;-8.548;2023-03-22T08:56:27;101413.6;;;16.8;66.5
72124;BME280;63818;37.134;-8.548;2023-03-22T09:01:23;101403.9;;;16.7;65.3
72124;BME280;63818;37.134;-8.548;2023-03-22T09:06:10;101429.0;;;16.8;65.9
72124;BME280;63818;37.134;-8.548;2023-03-22T09:11:20;101435.0;;;16.9;64.5
72124;BME280;63818;37.134;-8.548;2023-03-22T09:16:07;101435.1;;;16.9;64.5
72124;BME280;63818;37.134;-8.548;2023-03-22T09:20:56;101440.6;;;16.9;64.0
72124;BME280;63818;37.134;-8.548;2023-03-22T09:25:52;101446.2;;;17.0;63.4
72124;BME280;63818;37.134;-8.548;2023-03-22T09:30:39;101438.2;;;17.0;64.2
72124;BME280;63818;37.134;-8.548;2023-03-22T09:35:28;101442.8;;;17.0;63.5
72124;BME280;63818;37.134;-8.548;2023-03-22T09:40:15;101454.8;;;17.1;63.2
72124;BME280;63818;37.134;-8.548;2023-03-22T09:45:03;101458.4;;;17.1;62.5
72124;BME280;63818;37.134;-8.548;2023-03-22T09:50:04;101455.1;;;17.2;62.6
72124;BME280;63818;37.134;-8.548;2023-03-22T09:54:47;101450.3;;;17.2;62.1
72124;BME280;63818;37.134;-8.548;2023-03-22T09:59:49;101450.4;;;17.3;61.6
72124;BME280;63818;37.134;-8.548;2023-03-22T10:04:50;101456.8;;;17.3;64.1
72124;BME280;63818;37.134;-8.548;2023-03-22T10:09:46;101458.2;;;17.3;65.4
72124;BME280;63818;37.134;-8.548;2023-03-22T10:19:34;101458.6;;;17.3;65.7
72124;BME280;63818;37.134;-8.548;2023-03-22T10:24:23;101460.1;;;17.4;65.9
72124;BME280;63818;37.134;-8.548;2023-03-22T10:29:14;101454.4;;;17.4;65.3
72124;BME280;63818;37.134;-8.548;2023-03-22T10:34:06;101454.7;;;17.5;65.0
72124;BME280;63818;37.134;-8.548;2023-03-22T10:38:55;101461.8;;;17.5;65.1
72124;BME280;63818;37.134;-8.548;2023-03-22T10:43:44;101454.9;;;17.5;65.2
72124;BME280;63818;37.134;-8.548;2023-03-22T10:48:38;101446.1;;;17.6;65.6
72124;BME280;63818;37.134;-8.548;2023-03-22T10:53:33;101461.6;;;17.6;65.6
72124;BME280;63818;37.134;-8.548;2023-03-22T10:58:22;101462.4;;;17.6;66.3
72124;BME280;63818;37.134;-8.548;2023-03-22T11:03:28;101448.4;;;17.6;65.8
72124;BME280;63818;37.134;-8.548;2023-03-22T11:08:25;101452.2;;;17.5;65.8
72124;BME280;63818;37.134;-8.548;2023-03-22T11:13:16;101460.7;;;17.5;66.4
72124;BME280;63818;37.134;-8.548;2023-03-22T11:18:05;101457.7;;;17.5;67.0
72124;BME280;63818;37.134;-8.548;2023-03-22T11:22:52;101455.0;;;17.5;66.9
72124;BME280;63818;37.134;-8.548;2023-03-22T11:27:54;101455.0;;;17.5;66.7
72124;BME280;63818;37.134;-8.548;2023-03-22T11:32:40;101448.9;;;17.5;65.8
72124;BME280;63818;37.134;-8.548;2023-03-22T11:37:28;101448.4;;;17.6;65.1
72124;BME280;63818;37.134;-8.548;2023-03-22T11:47:11;101426.7;;;17.7;64.6
72124;BME280;63818;37.134;-8.548;2023-03-22T11:52:09;101431.1;;;17.7;63.7
72124;BME280;63818;37.134;-8.548;2023-03-22T11:56:57;101416.2;;;17.8;62.0
72124;BME280;63818;37.134;-8.548;2023-03-22T12:01:57;101419.2;;;17.9;60.6
72124;BME280;63818;37.134;-8.548;2023-03-22T12:06:45;101408.9;;;18.0;59.5
72124;BME280;63818;37.134;-8.548;2023-03-22T12:11:38;101403.6;;;18.0;57.4
72124;BME280;63818;37.134;-8.548;2023-03-22T12:16:28;101399.7;;;18.1;56.2
72124;BME280;63818;37.134;-8.548;2023-03-22T12:21:14;101396.7;;;18.1;53.6
72124;BME280;63818;37.134;-8.548;2023-03-22T12:26:03;101392.3;;;18.2;54.1
72124;BME280;63818;37.134;-8.548;2023-03-22T12:35:44;101385.5;;;18.3;53.4
72124;BME280;63818;37.134;-8.548;2023-03-22T12:40:35;101389.6;;;18.4;54.4
72124;BME280;63818;37.134;-8.548;2023-03-22T12:45:25;101382.6;;;18.4;55.3
72124;BME280;63818;37.134;-8.548;2023-03-22T12:50:16;101384.9;;;18.4;55.8
72124;BME280;63818;37.134;-8.548;2023-03-22T12:55:03;101379.3;;;18.4;56.0
72124;BME280;63818;37.134;-8.548;2023-03-22T12:59:52;101389.4;;;18.4;57.8
72124;BME280;63818;37.134;-8.548;2023-03-22T13:04:52;101381.2;;;18.4;58.3
72124;BME280;63818;37.134;-8.548;2023-03-22T13:09:44;101381.3;;;18.5;58.4
72124;BME280;63818;37.134;-8.548;2023-03-22T13:15:02;101380.7;;;18.5;58.4
72124;BME280;63818;37.134;-8.548;2023-03-22T13:19:53;101370.8;;;18.6;58.8
72124;BME280;63818;37.134;-8.548;2023-03-22T13:25:04;101366.7;;;18.6;59.5
72124;BME280;63818;37.134;-8.548;2023-03-22T13:29:50;101366.0;;;18.6;59.6
72124;BME280;63818;37.134;-8.548;2023-03-22T13:34:46;101359.0;;;18.7;58.9
72124;BME280;63818;37.134;-8.548;2023-03-22T13:39:59;101359.2;;;18.7;60.1
72124;BME280;63818;37.134;-8.548;2023-03-22T13:44:51;101354.0;;;18.8;60.5
72124;BME280;63818;37.134;-8.548;2023-03-22T13:50:04;101347.6;;;18.9;61.3
72124;BME280;63818;37.134;-8.548;2023-03-22T13:54:55;101346.5;;;18.9;61.0
72124;BME280;63818;37.134;-8.548;2023-03-22T14:00:03;101338.0;;;18.9;61.5
72124;BME280;63818;37.134;-8.548;2023-03-22T14:04:52;101337.8;;;19.0;61.6
72124;BME280;63818;37.134;-8.548;2023-03-22T14:14:39;101325.2;;;19.2;60.6
72124;BME280;63818;37.134;-8.548;2023-03-22T14:19:32;101323.9;;;19.4;60.7
72124;BME280;63818;37.134;-8.548;2023-03-22T14:24:21;101330.7;;;19.4;60.9
72124;BME280;63818;37.134;-8.548;2023-03-22T14:29:17;101320.5;;;19.5;60.9
72124;BME280;63818;37.134;-8.548;2023-03-22T14:34:06;101309.9;;;19.7;60.7
72124;BME280;63818;37.134;-8.548;2023-03-22T14:38:54;101314.5;;;19.8;60.2
72124;BME280;63818;37.134;-8.548;2023-03-22T14:43:41;101314.6;;;20.0;60.2
72124;BME280;63818;37.134;-8.548;2023-03-22T14:48:31;101315.0;;;20.2;60.0
72124;BME280;63818;37.134;-8.548;2023-03-22T14:53:29;101300.2;;;20.4;57.6
72124;BME280;63818;37.134;-8.548;2023-03-22T14:58:18;101291.8;;;20.7;55.9
72124;BME280;63818;37.134;-8.548;2023-03-22T15:03:11;101291.1;;;20.9;54.2
72124;BME280;63818;37.134;-8.548;2023-03-22T15:08:09;101276.6;;;21.6;51.5
72124;BME280;63818;37.134;-8.548;2023-03-22T15:12:57;101256.9;;;24.7;43.3
72124;BME280;63818;37.134;-8.548;2023-03-22T15:17:57;101237.0;;;27.4;37.6
72124;BME280;63818;37.134;-8.548;2023-03-22T15:22:53;101238.5;;;28.5;35.5
72124;BME280;63818;37.134;-8.548;2023-03-22T15:27:41;101227.5;;;29.5;33.8
72124;BME280;63818;37.134;-8.548;2023-03-22T15:32:27;101208.5;;;29.9;32.4
72124;BME280;63818;37.134;-8.548;2023-03-22T15:37:18;101215.0;;;30.2;30.7
72124;BME280;63818;37.134;-8.548;2023-03-22T15:42:12;101208.0;;;30.5;31.0
72124;BME280;63818;37.134;-8.548;2023-03-22T15:46:59;101201.2;;;31.0;29.6
72124;BME280;63818;37.134;-8.548;2023-03-22T15:52:17;101204.8;;;31.4;28.8
72124;BME280;63818;37.134;-8.548;2023-03-22T15:57:14;101197.3;;;31.5;28.6
72124;BME280;63818;37.134;-8.548;2023-03-22T16:02:12;101194.2;;;31.7;28.4
72124;BME280;63818;37.134;-8.548;2023-03-22T16:07:03;101196.2;;;31.7;26.6
72124;BME280;63818;37.134;-8.548;2023-03-22T16:11:49;101191.2;;;31.2;25.2
72124;BME280;63818;37.134;-8.548;2023-03-22T16:16:38;101190.1;;;30.3;24.8
72124;BME280;63818;37.134;-8.548;2023-03-22T16:21:27;101195.4;;;29.9;26.2
72124;BME280;63818;37.134;-8.548;2023-03-22T16:26:15;101205.6;;;28.3;27.4
72124;BME280;63818;37.134;-8.548;2023-03-22T16:31:00;101196.6;;;27.3;29.4
72124;BME280;63818;37.134;-8.548;2023-03-22T16:35:49;101201.7;;;26.3;30.0
72124;BME280;63818;37.134;-8.548;2023-03-22T16:40:35;101202.0;;;25.6;30.8
72124;BME280;63818;37.134;-8.548;2023-03-22T16:45:23;101211.0;;;25.2;32.0
72124;BME280;63818;37.134;-8.548;2023-03-22T16:50:12;101198.5;;;25.0;33.0
72124;BME280;63818;37.134;-8.548;2023-03-22T16:54:58;101197.7;;;24.8;33.7
72124;BME280;63818;37.134;-8.548;2023-03-22T16:59:45;101198.5;;;24.7;35.5
72124;BME280;63818;37.134;-8.548;2023-03-22T17:04:33;101200.8;;;24.3;35.7
72124;BME280;63818;37.134;-8.548;2023-03-22T17:09:23;101221.4;;;24.0;39.0
72124;BME280;63818;37.134;-8.548;2023-03-22T17:14:13;101231.5;;;23.7;41.7
72124;BME280;63818;37.134;-8.548;2023-03-22T17:18:58;101245.8;;;23.5;43.2
72124;BME280;63818;37.134;-8.548;2023-03-22T17:23:45;101250.2;;;23.1;43.4
72124;BME280;63818;37.134;-8.548;2023-03-22T17:28:35;101255.6;;;23.0;42.7
72124;BME280;63818;37.134;-8.548;2023-03-22T17:33:21;101254.6;;;22.8;44.3
72124;BME280;63818;37.134;-8.548;2023-03-22T17:38:07;101266.0;;;22.4;44.5
72124;BME280;63818;37.134;-8.548;2023-03-22T17:42:55;101272.6;;;22.4;45.8
72124;BME280;63818;37.134;-8.548;2023-03-22T17:47:41;101272.0;;;22.2;46.6
72124;BME280;63818;37.134;-8.548;2023-03-22T17:52:27;101284.3;;;22.1;48.2
72124;BME280;63818;37.134;-8.548;2023-03-22T17:57:16;101281.0;;;21.9;48.1
72124;BME280;63818;37.134;-8.548;2023-03-22T18:02:02;101277.6;;;21.5;48.2
72124;BME280;63818;37.134;-8.548;2023-03-22T18:06:51;101283.8;;;21.5;49.0
72124;BME280;63818;37.134;-8.548;2023-03-22T18:11:37;101292.7;;;21.4;50.0
72124;BME280;63818;37.134;-8.548;2023-03-22T18:16:29;101307.0;;;21.1;50.9
72124;BME280;63818;37.134;-8.548;2023-03-22T18:21:16;101294.8;;;20.8;51.3
72124;BME280;63818;37.134;-8.548;2023-03-22T18:26:06;101295.8;;;20.7;52.2
72124;BME280;63818;37.134;-8.548;2023-03-22T18:30:52;101288.2;;;20.7;52.5
72124;BME280;63818;37.134;-8.548;2023-03-22T18:35:38;101291.0;;;20.5;52.8
72124;BME280;63818;37.134;-8.548;2023-03-22T18:40:24;101285.8;;;20.2;53.3
72124;BME280;63818;37.134;-8.548;2023-03-22T18:45:57;101285.1;;;20.1;54.1
72124;BME280;63818;37.134;-8.548;2023-03-22T18:50:44;101295.1;;;20.0;55.5
72124;BME280;63818;37.134;-8.548;2023-03-22T18:55:33;101296.2;;;20.0;55.9
72124;BME280;63818;37.134;-8.548;2023-03-22T19:00:19;101307.9;;;19.6;55.6
72124;BME280;63818;37.134;-8.548;2023-03-22T19:05:06;101297.6;;;19.5;54.5
72124;BME280;63818;37.134;-8.548;2023-03-22T19:09:54;101294.9;;;19.3;54.5
72124;BME280;63818;37.134;-8.548;2023-03-22T19:14:41;101291.7;;;19.2;54.7
72124;BME280;63818;37.134;-8.548;2023-03-22T19:19:35;101304.4;;;19.2;54.5
72124;BME280;63818;37.134;-8.548;2023-03-22T19:24:20;101292.6;;;19.1;54.6
72124;BME280;63818;37.134;-8.548;2023-03-22T19:29:06;101292.9;;;19.3;53.8
72124;BME280;63818;37.134;-8.548;2023-03-22T19:33:57;101295.3;;;19.3;54.0
72124;BME280;63818;37.134;-8.548;2023-03-22T19:38:43;101296.2;;;19.3;53.3
72124;BME280;63818;37.134;-8.548;2023-03-22T19:43:32;101297.5;;;19.4;52.8
72124;BME280;63818;37.134;-8.548;2023-03-22T19:48:18;101300.7;;;19.4;52.7
72124;BME280;63818;37.134;-8.548;2023-03-22T19:53:13;101305.6;;;19.3;51.9
72124;BME280;63818;37.134;-8.548;2023-03-22T20:02:50;101294.6;;;19.2;50.8
72124;BME280;63818;37.134;-8.548;2023-03-22T20:07:38;101291.6;;;19.2;50.7
72124;BME280;63818;37.134;-8.548;2023-03-22T20:12:24;101295.0;;;19.2;50.4
72124;BME280;63818;37.134;-8.548;2023-03-22T20:17:11;101306.8;;;19.2;50.4
72124;BME280;63818;37.134;-8.548;2023-03-22T20:21:57;101311.0;;;19.2;50.4
72124;BME280;63818;37.134;-8.548;2023-03-22T20:26:46;101314.0;;;19.1;50.5
72124;BME280;63818;37.134;-8.548;2023-03-22T20:31:37;101324.9;;;19.1;50.7
72124;BME280;63818;37.134;-8.548;2023-03-22T20:36:23;101329.3;;;19.2;50.9
72124;BME280;63818;37.134;-8.548;2023-03-22T20:41:12;101331.5;;;19.1;50.6
72124;BME280;63818;37.134;-8.548;2023-03-22T20:45:58;101319.1;;;19.1;50.8
72124;BME280;63818;37.134;-8.548;2023-03-22T20:50:48;101320.7;;;19.2;50.9
72124;BME280;63818;37.134;-8.548;2023-03-22T20:55:34;101321.5;;;19.2;51.0
72124;BME280;63818;37.134;-8.548;2023-03-22T21:00:23;101335.9;;;19.2;51.5
72124;BME280;63818;37.134;-8.548;2023-03-22T21:05:10;101330.9;;;19.1;50.9
72124;BME280;63818;37.134;-8.548;2023-03-22T21:09:56;101344.2;;;18.9;50.9
72124;BME280;63818;37.134;-8.548;2023-03-22T21:14:52;101343.5;;;18.8;49.9
72124;BME280;63818;37.134;-8.548;2023-03-22T21:19:37;101340.6;;;18.8;48.8
72124;BME280;63818;37.134;-8.548;2023-03-22T21:24:23;101325.7;;;18.7;48.7
72124;BME280;63818;37.134;-8.548;2023-03-22T21:29:10;101343.8;;;18.8;49.0
72124;BME280;63818;37.134;-8.548;2023-03-22T21:33:55;101346.6;;;18.7;48.4
72124;BME280;63818;37.134;-8.548;2023-03-22T21:38:52;101347.1;;;18.4;48.4
72124;BME280;63818;37.134;-8.548;2023-03-22T21:43:39;101351.0;;;18.5;48.4
72124;BME280;63818;37.134;-8.548;2023-03-22T21:48:26;101350.7;;;18.5;48.0
72124;BME280;63818;37.134;-8.548;2023-03-22T21:53:27;101349.7;;;18.4;47.8
72124;BME280;63818;37.134;-8.548;2023-03-22T21:58:13;101354.5;;;18.5;47.9
72124;BME280;63818;37.134;-8.548;2023-03-22T22:02:59;101355.8;;;18.4;47.3
72124;BME280;63818;37.134;-8.548;2023-03-22T22:07:45;101356.9;;;18.4;48.0
72124;BME280;63818;37.134;-8.548;2023-03-22T22:12:33;101362.0;;;18.4;48.1
72124;BME280;63818;37.134;-8.548;2023-03-22T22:17:22;101346.5;;;18.4;48.2
72124;BME280;63818;37.134;-8.548;2023-03-22T22:22:08;101344.9;;;18.4;48.1
72124;BME280;63818;37.134;-8.548;2023-03-22T22:27:09;101342.3;;;18.4;48.3
72124;BME280;63818;37.134;-8.548;2023-03-22T22:31:55;101352.5;;;18.3;48.1
72124;BME280;63818;37.134;-8.548;2023-03-22T22:36:41;101347.4;;;18.1;48.7
72124;BME280;63818;37.134;-8.548;2023-03-22T22:41:29;101345.0;;;18.1;49.2
72124;BME280;63818;37.134;-8.548;2023-03-22T22:46:18;101349.8;;;18.2;49.4
72124;BME280;63818;37.134;-8.548;2023-03-22T22:51:06;101337.8;;;18.2;49.9
72124;BME280;63818;37.134;-8.548;2023-03-22T22:55:55;101338.6;;;18.2;50.5
72124;BME280;63818;37.134;-8.548;2023-03-22T23:00:43;101353.7;;;18.2;50.7
72124;BME280;63818;37.134;-8.548;2023-03-22T23:05:38;101372.1;;;18.0;52.8
72124;BME280;63818;37.134;-8.548;2023-03-22T23:10:24;101371.0;;;18.0;53.5
72124;BME280;63818;37.134;-8.548;2023-03-22T23:15:10;101368.7;;;18.0;53.5
72124;BME280;63818;37.134;-8.548;2023-03-22T23:19:58;101369.4;;;18.0;53.9
72124;BME280;63818;37.134;-8.548;2023-03-22T23:24:44;101382.8;;;17.8;55.0
72124;BME280;63818;37.134;-8.548;2023-03-22T23:29:36;101375.1;;;17.8;55.7
72124;BME280;63818;37.134;-8.548;2023-03-22T23:34:22;101368.6;;;17.9;55.8
72124;BME280;63818;37.134;-8.548;2023-03-22T23:39:35;101367.5;;;17.9;56.1
72124;BME280;63818;37.134;-8.548;2023-03-22T23:44:22;101367.1;;;17.9;56.5
72124;BME280;63818;37.134;-8.548;2023-03-22T23:49:08;101359.3;;;17.9;56.8
72124;BME280;63818;37.134;-8.548;2023-03-22T23:53:59;101357.8;;;17.9;57.0
72124;BME280;63818;37.134;-8.548;2023-03-22T23:58:47;101353.4;;;17.8;57.3
